createdAt,value
2022-11-29T00:01:11.845Z,98789.84
2022-11-29T00:03:38.897Z,98787.28
2022-11-29T00:06:07.289Z,98783.84
2022-11-29T00:08:34.103Z,98780.41
2022-11-29T00:11:35.788Z,98776.97
2022-11-29T00:14:02.677Z,98772.69
2022-11-29T00:16:29.418Z,98783.81
2022-11-29T00:18:56.524Z,98786.38
2022-11-29T00:21:23.209Z,98782.09
2022-11-29T00:23:50.064Z,98778.66
2022-11-29T00:26:16.850Z,98781.22
2022-11-29T00:28:43.547Z,98778.66
2022-11-29T00:31:20.812Z,98775.25
2022-11-29T00:33:48.236Z,98782.06
2022-11-29T00:36:16.201Z,98778.66
2022-11-29T00:38:43.194Z,98773.53
2022-11-29T00:41:10.377Z,98769.28
2022-11-29T00:43:37.236Z,98770.13
2022-11-29T00:46:04.612Z,98769.25
2022-11-29T00:48:32.017Z,98778.66
2022-11-29T00:50:59.025Z,98779.50
2022-11-29T00:53:25.721Z,98770.09
2022-11-29T00:55:53.587Z,98778.63
2022-11-29T00:58:21.123Z,98776.06
2022-11-29T01:00:48.316Z,98772.63
2022-11-29T01:03:16.443Z,98770.06
2022-11-29T01:05:45.651Z,98772.63
2022-11-29T01:08:13.542Z,98773.47
2022-11-29T01:10:41.071Z,98780.28
2022-11-29T01:13:09.686Z,98772.59
2022-11-29T01:15:37.235Z,98771.75
2022-11-29T01:18:04.075Z,98776.00
2022-11-29T01:20:31.067Z,98773.44
2022-11-29T01:22:58.287Z,98770.03
2022-11-29T01:25:25.270Z,98765.72
2022-11-29T01:27:51.846Z,98762.31
2022-11-29T01:30:18.448Z,98760.56
2022-11-29T01:32:45.236Z,98762.31
2022-11-29T01:35:12.105Z,98753.72
2022-11-29T01:37:38.867Z,98764.00
2022-11-29T01:40:06.433Z,98758.00
2022-11-29T01:42:33.166Z,98747.75
2022-11-29T01:45:20.333Z,98746.88
2022-11-29T01:47:49.172Z,98745.97
2022-11-29T01:50:16.509Z,98744.28
2022-11-29T01:52:44.175Z,98747.69
2022-11-29T01:55:12.025Z,98741.72
2022-11-29T01:57:41.333Z,98745.13
2022-11-29T02:00:12.684Z,98741.72
2022-11-29T02:02:44.974Z,98740.84
2022-11-29T02:05:15.063Z,98745.16
2022-11-29T02:07:53.561Z,98740.88
2022-11-29T02:10:26.104Z,98741.69
2022-11-29T02:13:14.461Z,98737.41
2022-11-29T02:15:59.940Z,98741.69
2022-11-29T02:18:38.791Z,98736.53
2022-11-29T02:21:24.351Z,98740.00
2022-11-29T02:24:11.023Z,98740.03
2022-11-29T02:27:18.197Z,98735.72
2022-11-29T02:30:08.287Z,98737.44
2022-11-29T02:33:06.217Z,98734.00
2022-11-29T02:35:42.085Z,98736.56
2022-11-29T02:38:27.889Z,98740.03
2022-11-29T02:40:57.623Z,98738.28
2022-11-29T02:44:00.955Z,98736.59
2022-11-29T02:46:45.573Z,98735.72
2022-11-29T02:49:22.701Z,98741.72
2022-11-29T02:51:49.267Z,98754.53
2022-11-29T02:54:29.451Z,98755.41
2022-11-29T02:57:14.599Z,98753.69
2022-11-29T02:59:52.721Z,98755.38
2022-11-29T03:02:32.977Z,98755.38
2022-11-29T03:05:17.779Z,98760.53
2022-11-29T03:07:59.533Z,98770.81
2022-11-29T03:10:55.730Z,98770.81
2022-11-29T03:13:55.083Z,98778.56
2022-11-29T03:16:43.246Z,98780.25
2022-11-29T03:19:10.217Z,98773.41
2022-11-29T03:21:44.211Z,98775.13
2022-11-29T03:24:21.299Z,98786.25
2022-11-29T03:27:06.728Z,98779.41
2022-11-29T03:29:43.223Z,98781.97
2022-11-29T03:32:21.529Z,98785.41
2022-11-29T03:35:23.928Z,98782.84
2022-11-29T03:38:03.196Z,98782.84
2022-11-29T03:40:38.632Z,98790.53
2022-11-29T03:43:20.077Z,98792.22
2022-11-29T03:45:59.253Z,98795.66
2022-11-29T03:48:44.943Z,98792.19
2022-11-29T03:51:18.924Z,98793.06
2022-11-29T03:53:54.555Z,98793.06
2022-11-29T03:56:34.870Z,98789.63
2022-11-29T03:59:13.632Z,98786.22
2022-11-29T04:02:04.042Z,98793.94
2022-11-29T04:04:53.772Z,98788.78
2022-11-29T04:07:48.059Z,98794.78
2022-11-29T04:10:43.242Z,98799.03
2022-11-29T04:13:29.216Z,98798.19
2022-11-29T04:16:44.788Z,98792.19
2022-11-29T04:19:41.004Z,98789.63
2022-11-29T04:22:19.857Z,98792.19
2022-11-29T04:25:17.262Z,98794.78
2022-11-29T04:27:52.882Z,98794.78
2022-11-29T04:30:25.818Z,98796.47
2022-11-29T04:33:04.839Z,98789.63
2022-11-29T04:35:50.248Z,98793.09
2022-11-29T04:38:37.887Z,98798.22
2022-11-29T04:41:23.281Z,98798.25
2022-11-29T04:43:55.879Z,98798.22
2022-11-29T04:46:58.074Z,98802.53
2022-11-29T04:49:56.370Z,98801.66
2022-11-29T04:52:44.813Z,98803.41
2022-11-29T04:55:31.191Z,98805.09
2022-11-29T04:58:16.212Z,98813.66
2022-11-29T05:00:56.800Z,98811.09
2022-11-29T05:03:56.900Z,98802.53
2022-11-29T05:06:43.647Z,98807.69
2022-11-29T05:09:26.133Z,98807.66
2022-11-29T05:12:05.835Z,98808.53
2022-11-29T05:14:40.912Z,98812.81
2022-11-29T05:17:38.829Z,98814.50
2022-11-29T05:20:15.259Z,98825.66
2022-11-29T05:23:22.731Z,98822.19
2022-11-29T05:26:09.799Z,98816.22
2022-11-29T05:28:53.883Z,98829.06
2022-11-29T05:31:20.930Z,98827.34
2022-11-29T05:34:15.072Z,98829.06
2022-11-29T05:36:53.846Z,98831.63
2022-11-29T05:39:33.486Z,98832.47
2022-11-29T05:42:08.688Z,98838.50
2022-11-29T05:44:45.095Z,98840.19
2022-11-29T05:47:18.122Z,98835.03
2022-11-29T05:49:52.486Z,98839.31
2022-11-29T05:52:43.854Z,98843.63
2022-11-29T05:55:32.165Z,98850.44
2022-11-29T05:58:17.610Z,98847.88
2022-11-29T06:00:57.181Z,98853.00
2022-11-29T06:03:40.423Z,98853.88
2022-11-29T06:06:19.649Z,98864.16
2022-11-29T06:08:56.032Z,98864.16
2022-11-29T06:11:32.792Z,98861.56
2022-11-29T06:14:20.392Z,98861.56
2022-11-29T06:17:08.981Z,98865.00
2022-11-29T06:19:54.104Z,98864.16
2022-11-29T06:22:50.889Z,98865.00
2022-11-29T06:25:53.501Z,98871.00
2022-11-29T06:28:32.407Z,98871.00
2022-11-29T06:31:08.515Z,98871.84
2022-11-29T06:34:01.105Z,98873.56
2022-11-29T06:36:48.640Z,98871.84
2022-11-29T06:39:17.769Z,98872.69
2022-11-29T06:41:44.451Z,98873.53
2022-11-29T06:44:11.650Z,98884.66
2022-11-29T06:46:48.004Z,98876.97
2022-11-29T06:49:28.775Z,98885.53
2022-11-29T06:52:38.284Z,98888.91
2022-11-29T06:55:34.797Z,98891.50
2022-11-29T06:58:40.500Z,98889.78
2022-11-29T07:01:47.995Z,98891.50
2022-11-29T07:04:23.351Z,98895.75
2022-11-29T07:06:50.348Z,98888.94
2022-11-29T07:09:19.483Z,98892.31
2022-11-29T07:11:47.788Z,98893.16
2022-11-29T07:14:16.511Z,98890.56
2022-11-29T07:17:08.317Z,98894.00
2022-11-29T07:19:46.986Z,98890.59
2022-11-29T07:22:32.524Z,98892.28
2022-11-29T07:25:21.757Z,98900.84
2022-11-29T07:28:30.990Z,98908.50
2022-11-29T07:31:00.583Z,98913.63
2022-11-29T07:33:48.549Z,98912.75
2022-11-29T07:36:38.424Z,98919.56
2022-11-29T07:39:24.376Z,98922.09
2022-11-29T07:42:03.002Z,98918.69
2022-11-29T07:44:39.082Z,98922.94
2022-11-29T07:47:06.151Z,98924.59
2022-11-29T07:49:32.784Z,98926.31
2022-11-29T07:51:59.617Z,98920.31
2022-11-29T07:54:26.844Z,98930.56
2022-11-29T07:56:54.039Z,98934.84
2022-11-29T07:59:20.702Z,98939.09
2022-11-29T08:01:47.532Z,98933.06
2022-11-29T08:04:14.259Z,98931.31
2022-11-29T08:06:41.807Z,98931.28
2022-11-29T08:09:08.413Z,98927.81
2022-11-29T08:11:35.099Z,98930.34
2022-11-29T08:14:04.324Z,98935.41
2022-11-29T08:16:31.565Z,98935.28
2022-11-29T08:18:58.316Z,98939.50
2022-11-29T08:21:25.035Z,98936.00
2022-11-29T08:23:52.088Z,98937.69
2022-11-29T08:26:20.336Z,98930.75
2022-11-29T08:28:52.266Z,98939.28
2022-11-29T08:31:20.646Z,98940.97
2022-11-29T08:33:48.313Z,98936.63
2022-11-29T08:36:18.480Z,98940.03
2022-11-29T08:38:46.218Z,98937.41
2022-11-29T08:41:15.898Z,98939.09
2022-11-29T08:43:43.475Z,98945.91
2022-11-29T08:46:13.766Z,98935.59
2022-11-29T08:48:45.233Z,98940.75
2022-11-29T08:51:11.887Z,98945.03
2022-11-29T08:53:41.359Z,98944.13
2022-11-29T08:56:49.442Z,98940.69
2022-11-29T08:59:01.537Z,98943.25
2022-11-29T09:01:29.788Z,98948.31
2022-11-29T09:04:07.436Z,98943.19
2022-11-29T09:06:38.905Z,98940.63
2022-11-29T09:09:06.394Z,98944.91
2022-11-29T09:11:35.375Z,98946.63
2022-11-29T09:14:05.906Z,98950.00
2022-11-29T09:16:38.006Z,98950.84
2022-11-29T09:19:05.856Z,98954.25
2022-11-29T09:21:34.973Z,98957.66
2022-11-29T09:24:02.121Z,98953.34
2022-11-29T09:26:30.085Z,98956.72
2022-11-29T09:28:58.275Z,98958.41
2022-11-29T09:31:25.074Z,98950.66
2022-11-29T09:33:55.335Z,98955.72
2022-11-29T09:36:27.823Z,98956.53
2022-11-29T09:38:55.345Z,98950.44
2022-11-29T09:41:35.220Z,98946.94
2022-11-29T09:44:11.383Z,98938.34
2022-11-29T09:46:44.851Z,98943.38
2022-11-29T09:49:11.850Z,98941.53
2022-11-29T09:51:55.694Z,98940.63
2022-11-29T09:54:22.416Z,98936.28
2022-11-29T09:56:50.417Z,98944.00
2022-11-29T09:59:23.512Z,98942.22
2022-11-29T10:02:15.929Z,98944.75
2022-11-29T10:04:54.849Z,98938.63
2022-11-29T10:07:24.145Z,98938.53
2022-11-29T10:09:54.766Z,98929.84
2022-11-29T10:12:35.299Z,98920.34
2022-11-29T10:15:14.015Z,98922.06
2022-11-29T10:17:43.689Z,98916.88
2022-11-29T10:20:17.688Z,98927.97
2022-11-29T10:22:49.600Z,98921.91
2022-11-29T10:25:30.720Z,98908.94
2022-11-29T10:27:58.007Z,98923.50
2022-11-29T10:30:24.629Z,98902.81
2022-11-29T10:32:56.159Z,98916.53
2022-11-29T10:35:23.113Z,98918.19
2022-11-29T10:38:28.701Z,98913.00
2022-11-29T10:40:40.259Z,98906.09
2022-11-29T10:43:07.087Z,98902.66
2022-11-29T10:45:39.059Z,98913.03
2022-11-29T10:48:14.624Z,98910.50
2022-11-29T10:50:44.515Z,98912.25
2022-11-29T10:53:12.587Z,98912.22
2022-11-29T10:55:58.004Z,98913.88
2022-11-29T10:58:28.327Z,98908.75
2022-11-29T11:01:07.054Z,98902.00
2022-11-29T11:03:35.475Z,98891.78
2022-11-29T11:06:01.992Z,98909.91
2022-11-29T11:08:29.907Z,98901.25
2022-11-29T11:11:01.740Z,98896.13
2022-11-29T11:13:30.513Z,98895.31
2022-11-29T11:15:58.853Z,98894.53
2022-11-29T11:18:26.808Z,98894.53
2022-11-29T11:20:54.808Z,98889.47
2022-11-29T11:23:25.296Z,98901.50
2022-11-29T11:26:05.429Z,98899.03
2022-11-29T11:28:37.432Z,98887.91
2022-11-29T11:31:08.797Z,98887.91
2022-11-29T11:33:37.872Z,98890.47
2022-11-29T11:36:07.458Z,98890.47
2022-11-29T11:38:35.409Z,98890.50
2022-11-29T11:41:19.865Z,98890.56
2022-11-29T11:43:50.913Z,98904.38
2022-11-29T11:46:18.247Z,98894.97
2022-11-29T11:48:47.553Z,98895.88
2022-11-29T11:51:21.678Z,98898.41
2022-11-29T11:53:53.840Z,98898.44
2022-11-29T11:56:21.155Z,98900.16
2022-11-29T11:58:49.856Z,98896.72
2022-11-29T12:01:25.447Z,98901.84
2022-11-29T12:03:52.229Z,98904.47
2022-11-29T12:06:30.631Z,98897.59
2022-11-29T12:09:17.551Z,98898.47
2022-11-29T12:11:47.159Z,98898.50
2022-11-29T12:14:19.541Z,98896.84
2022-11-29T12:16:47.770Z,98890.81
2022-11-29T12:19:37.396Z,98889.97
2022-11-29T12:22:07.048Z,98889.97
2022-11-29T12:25:17.120Z,98884.81
2022-11-29T12:27:43.901Z,98893.41
2022-11-29T12:30:14.679Z,98888.28
2022-11-29T12:32:42.043Z,98894.31
2022-11-29T12:35:08.655Z,98886.53
2022-11-29T12:37:39.505Z,98889.13
2022-11-29T12:40:06.310Z,98893.41
2022-11-29T12:42:43.219Z,98881.38
2022-11-29T12:45:28.617Z,98883.97
2022-11-29T12:48:10.413Z,98889.13
2022-11-29T12:50:55.675Z,98883.09
2022-11-29T12:53:41.117Z,98880.50
2022-11-29T12:56:14.853Z,98881.38
2022-11-29T12:58:50.893Z,98884.81
2022-11-29T13:01:20.408Z,98880.59
2022-11-29T13:03:50.154Z,98884.84
2022-11-29T13:06:35.926Z,98895.16
2022-11-29T13:09:22.657Z,98886.59
2022-11-29T13:12:09.894Z,98890.06
2022-11-29T13:14:55.398Z,98895.19
2022-11-29T13:17:24.996Z,98896.94
2022-11-29T13:19:55.795Z,98891.81
2022-11-29T13:22:22.379Z,98892.66
2022-11-29T13:24:52.371Z,98890.97
2022-11-29T13:27:25.284Z,98903.00
2022-11-29T13:29:53.522Z,98897.00
2022-11-29T13:32:40.799Z,98900.47
2022-11-29T13:35:21.074Z,98898.78
2022-11-29T13:38:24.571Z,98901.44
2022-11-29T13:41:31.690Z,98898.88
2022-11-29T13:44:34.662Z,98897.22
2022-11-29T13:47:12.778Z,98901.56
2022-11-29T13:49:52.733Z,98903.28
2022-11-29T13:52:36.210Z,98904.19
2022-11-29T13:55:34.145Z,98907.66
2022-11-29T13:58:17.457Z,98905.97
2022-11-29T14:00:44.888Z,98914.63
2022-11-29T14:03:30.429Z,98909.47
2022-11-29T14:06:13.736Z,98914.66
2022-11-29T14:09:17.759Z,98915.53
2022-11-29T14:11:46.664Z,98910.44
2022-11-29T14:14:17.925Z,98916.44
2022-11-29T14:16:52.524Z,98918.16
2022-11-29T14:19:38.056Z,98916.53
2022-11-29T14:22:32.457Z,98919.97
2022-11-29T14:25:16.635Z,98920.94
2022-11-29T14:27:55.355Z,98924.41
2022-11-29T14:30:57.511Z,98927.00
2022-11-29T14:33:46.733Z,98925.34
2022-11-29T14:37:16.403Z,98926.25
2022-11-29T14:39:51.950Z,98930.63
2022-11-29T14:45:34.966Z,98923.81
2022-11-29T14:48:02.848Z,98920.41
2022-11-29T14:50:39.869Z,98915.28
2022-11-29T14:53:26.746Z,98921.31
2022-11-29T14:56:28.659Z,98916.16
2022-11-29T14:59:34.265Z,98911.06
2022-11-29T15:06:00.156Z,98913.75
2022-11-29T15:08:55.007Z,98918.94
2022-11-29T15:11:33.931Z,98919.88
2022-11-29T15:14:22.541Z,98921.59
2022-11-29T15:17:22.918Z,98925.94
2022-11-29T15:19:49.792Z,98931.97
2022-11-29T15:22:26.554Z,98930.31
2022-11-29T15:25:10.722Z,98935.47
2022-11-29T15:27:40.192Z,98928.66
2022-11-29T15:30:26.051Z,98935.53
2022-11-29T15:32:52.618Z,98936.41
2022-11-29T15:35:19.750Z,98934.72
2022-11-29T15:37:47.303Z,98938.16
2022-11-29T15:40:22.355Z,98933.06
2022-11-29T15:43:20.039Z,98933.94
2022-11-29T15:45:52.150Z,98934.88
2022-11-29T15:48:25.265Z,98929.75
2022-11-29T15:51:32.721Z,98937.47
2022-11-29T15:54:15.373Z,98938.38
2022-11-29T15:56:54.489Z,98933.25
2022-11-29T15:59:26.994Z,98939.25
2022-11-29T16:02:03.335Z,98941.84
2022-11-29T16:04:31.605Z,98935.00
2022-11-29T16:06:59.415Z,98939.28
2022-11-29T16:09:35.553Z,98947.00
2022-11-29T16:12:04.468Z,98945.31
2022-11-29T16:14:33.421Z,98944.47
2022-11-29T16:17:02.652Z,98947.03
2022-11-29T16:19:30.962Z,98941.91
2022-11-29T16:22:13.154Z,98948.75
2022-11-29T16:25:01.301Z,98941.09
2022-11-29T16:27:35.725Z,98951.34
2022-11-29T16:30:06.433Z,98947.91
2022-11-29T16:32:35.340Z,98952.19
2022-11-29T16:35:26.509Z,98950.50
2022-11-29T16:37:53.519Z,98942.81
2022-11-29T16:40:33.726Z,98947.13
2022-11-29T16:43:06.887Z,98947.97
2022-11-29T16:45:43.266Z,98953.13
2022-11-29T16:48:30.043Z,98953.13
2022-11-29T16:51:36.021Z,98948.00
2022-11-29T16:54:22.735Z,98954.88
2022-11-29T16:56:52.220Z,98950.59
2022-11-29T16:59:26.863Z,98948.91
2022-11-29T17:01:55.364Z,98955.72
2022-11-29T17:04:23.796Z,98962.56
2022-11-29T17:06:53.727Z,98958.31
2022-11-29T17:09:24.360Z,98961.72
2022-11-29T17:11:53.075Z,98962.59
2022-11-29T17:14:22.273Z,98967.75
2022-11-29T17:16:52.322Z,98966.03
2022-11-29T17:19:25.824Z,98963.44
2022-11-29T17:21:55.555Z,98966.03
2022-11-29T17:24:26.054Z,98954.06
2022-11-29T17:26:52.763Z,98966.03
2022-11-29T17:29:19.609Z,98962.63
2022-11-29T17:31:47.579Z,98970.31
2022-11-29T17:34:16.767Z,98970.31
2022-11-29T17:36:48.340Z,98968.63
2022-11-29T17:39:20.466Z,98972.91
2022-11-29T17:41:47.689Z,98972.91
2022-11-29T17:44:17.609Z,98972.06
2022-11-29T17:46:47.895Z,98969.50
2022-11-29T17:49:14.506Z,98969.50
2022-11-29T17:51:56.983Z,98977.19
2022-11-29T17:54:24.074Z,98984.88
2022-11-29T17:56:51.968Z,98985.75
2022-11-29T17:59:18.829Z,98984.88
2022-11-29T18:01:47.553Z,98987.44
2022-11-29T18:04:15.085Z,98991.72
2022-11-29T18:06:41.794Z,98992.59
2022-11-29T18:09:10.973Z,98992.56
2022-11-29T18:11:48.586Z,98987.44
2022-11-29T18:14:20.890Z,98989.19
2022-11-29T18:16:47.926Z,98989.16
2022-11-29T18:19:17.496Z,99000.28
2022-11-29T18:21:47.580Z,98995.97
2022-11-29T18:24:15.388Z,98995.13
2022-11-29T18:26:42.992Z,99001.97
2022-11-29T18:29:09.781Z,99001.13
2022-11-29T18:31:41.097Z,99004.50
2022-11-29T18:34:10.117Z,99003.66
2022-11-29T18:36:45.581Z,99001.09
2022-11-29T18:39:15.485Z,99003.66
2022-11-29T18:41:50.077Z,98998.53
2022-11-29T18:44:19.613Z,99006.22
2022-11-29T18:46:46.584Z,98998.53
2022-11-29T18:49:16.062Z,98999.34
2022-11-29T18:51:44.729Z,98987.38
2022-11-29T18:54:12.934Z,98995.94
2022-11-29T18:56:42.343Z,99002.75
2022-11-29T18:59:18.320Z,99009.56
2022-11-29T19:01:48.392Z,99007.00
2022-11-29T19:04:17.978Z,99008.69
2022-11-29T19:06:48.300Z,99005.31
2022-11-29T19:09:17.289Z,99016.38
2022-11-29T19:11:44.030Z,99007.00
2022-11-29T19:14:12.966Z,98999.28
2022-11-29T19:16:42.972Z,99003.56
2022-11-29T19:19:09.987Z,99003.53
2022-11-29T19:21:37.126Z,98999.25
2022-11-29T19:24:08.272Z,98997.53
2022-11-29T19:26:35.052Z,98998.38
2022-11-29T19:29:02.177Z,99002.63
2022-11-29T19:31:29.627Z,99008.63
2022-11-29T19:33:57.291Z,99013.75
2022-11-29T19:36:29.644Z,99005.22
2022-11-29T19:38:57.914Z,99010.31
2022-11-29T19:41:30.653Z,99010.31
2022-11-29T19:43:59.833Z,99013.72
2022-11-29T19:46:29.264Z,99009.44
2022-11-29T19:48:57.755Z,99018.84
2022-11-29T19:51:25.896Z,99008.56
2022-11-29T19:53:59.298Z,99014.56
2022-11-29T19:56:27.018Z,99029.91
2022-11-29T19:58:54.426Z,99020.53
2022-11-29T20:01:25.354Z,99021.34
2022-11-29T20:03:52.728Z,99022.22
2022-11-29T20:06:19.765Z,99022.22
2022-11-29T20:08:46.621Z,99026.44
2022-11-29T20:11:23.807Z,99029.84
2022-11-29T20:14:01.629Z,99021.28
2022-11-29T20:16:29.764Z,99024.69
2022-11-29T20:18:57.395Z,99029.81
2022-11-29T20:21:32.279Z,99028.94
2022-11-29T20:24:00.643Z,99040.03
2022-11-29T20:26:28.823Z,99040.84
2022-11-29T20:28:55.495Z,99040.84
2022-11-29T20:31:23.209Z,99044.25
2022-11-29T20:33:52.773Z,99057.03
2022-11-29T20:36:58.268Z,99042.50
2022-11-29T20:39:47.956Z,99046.75
2022-11-29T20:42:29.792Z,99049.31
2022-11-29T20:44:59.445Z,99046.72
2022-11-29T20:48:05.399Z,99053.53
2022-11-29T20:50:32.674Z,99044.97
2022-11-29T20:53:18.174Z,99048.41
2022-11-29T20:55:48.046Z,99050.09
2022-11-29T20:58:15.194Z,99050.06
2022-11-29T21:00:42.010Z,99050.94
2022-11-29T21:03:08.724Z,99051.75
2022-11-29T21:05:38.056Z,99051.75
2022-11-29T21:08:04.833Z,99062.84
2022-11-29T21:10:33.573Z,99056.84
2022-11-29T21:13:00.566Z,99053.41
2022-11-29T21:15:27.692Z,99064.50
2022-11-29T21:17:55.040Z,99058.50
2022-11-29T21:20:24.209Z,99062.75
2022-11-29T21:23:21.137Z,99058.50
2022-11-29T21:25:58.064Z,99055.94
2022-11-29T21:28:31.765Z,99066.16
2022-11-29T21:30:58.863Z,99067.84
2022-11-29T21:33:25.644Z,99071.25
2022-11-29T21:35:57.905Z,99071.25
2022-11-29T21:38:26.910Z,99071.25
2022-11-29T21:40:53.593Z,99074.63
2022-11-29T21:43:20.813Z,99073.75
2022-11-29T21:45:49.705Z,99077.16
2022-11-29T21:48:35.016Z,99072.91
2022-11-29T21:51:05.830Z,99071.16
2022-11-29T21:53:33.354Z,99066.03
2022-11-29T21:56:01.667Z,99071.13
2022-11-29T21:58:32.705Z,99076.25
2022-11-29T22:01:27.723Z,99070.25
2022-11-29T22:03:54.720Z,99053.19
2022-11-29T22:06:24.432Z,99054.88
2022-11-29T22:08:51.600Z,99046.34
2022-11-29T22:11:34.374Z,99050.63
2022-11-29T22:14:19.243Z,99055.75
2022-11-29T22:17:00.064Z,99058.25
2022-11-29T22:19:29.397Z,99058.25
2022-11-29T22:21:58.766Z,99061.66
2022-11-29T22:24:31.210Z,99058.22
2022-11-29T22:26:57.878Z,99053.97
2022-11-29T22:29:26.297Z,99057.34
2022-11-29T22:31:55.417Z,99046.28
2022-11-29T22:34:25.362Z,99041.13
2022-11-29T22:36:52.221Z,99048.75
2022-11-29T22:39:19.118Z,99050.47
2022-11-29T22:41:52.222Z,99050.44
2022-11-29T22:44:21.026Z,99053.84
2022-11-29T22:46:47.661Z,99056.38
2022-11-29T22:49:15.176Z,99051.25
2022-11-29T22:51:42.091Z,99046.94
2022-11-29T22:54:11.394Z,99047.81
2022-11-29T22:56:40.849Z,99049.50
2022-11-29T22:59:08.044Z,99053.72
2022-11-29T23:01:36.691Z,99053.69
2022-11-29T23:04:06.083Z,99053.69
2022-11-29T23:06:42.288Z,99052.00
2022-11-29T23:09:21.092Z,99046.84
2022-11-29T23:11:56.157Z,99039.19
2022-11-29T23:14:24.189Z,99039.97
2022-11-29T23:16:51.787Z,99044.22
2022-11-29T23:19:18.895Z,99043.34
2022-11-29T23:21:46.334Z,99043.34
2022-11-29T23:24:14.942Z,99035.66
2022-11-29T23:26:44.980Z,99036.50
2022-11-29T23:29:19.661Z,99029.69
2022-11-29T23:31:47.391Z,99030.50
2022-11-29T23:34:14.641Z,99017.72
2022-11-29T23:36:41.844Z,99016.84
2022-11-29T23:39:09.433Z,99016.81
2022-11-29T23:41:36.963Z,99018.53
2022-11-29T23:44:08.825Z,99020.22
2022-11-29T23:46:45.827Z,99023.59
2022-11-29T23:49:12.496Z,99027.88
2022-11-29T23:51:39.241Z,99033.00
2022-11-29T23:54:06.069Z,99027.91
2022-11-29T23:56:35.571Z,99037.25
2022-11-29T23:59:02.700Z,99042.34
